sensor_id;sensor_type;location;lat;lon;timestamp;P1;durP1;ratioP1;P2;durP2;ratioP2
12332;SDS011;6232;48.094;11.288;2023-09-30T00:00:06;26.47;;;10.80;;
12332;SDS011;6232;48.094;11.288;2023-09-30T00:02:54;28.20;;;11.50;;
12332;SDS011;6232;48.094;11.288;2023-09-30T00:05:39;34.10;;;11.73;;
12332;SDS011;6232;48.094;11.288;2023-09-30T00:08:25;28.87;;;11.23;;
12332;SDS011;6232;48.094;11.288;2023-09-30T00:11:11;32.47;;;10.90;;
12332;SDS011;6232;48.094;11.288;2023-09-30T00:13:58;34.50;;;12.00;;
12332;SDS011;6232;48.094;11.288;2023-09-30T00:16:44;23.97;;;11.10;;
12332;SDS011;6232;48.094;11.288;2023-09-30T00:19:30;24.90;;;10.83;;
12332;SDS011;6232;48.094;11.288;2023-09-30T00:22:18;30.27;;;11.53;;
12332;SDS011;6232;48.094;11.288;2023-09-30T00:25:04;29.90;;;12.57;;
12332;SDS011;6232;48.094;11.288;2023-09-30T00:27:50;31.67;;;12.40;;
12332;SDS011;6232;48.094;11.288;2023-09-30T00:30:36;25.13;;;10.60;;
12332;SDS011;6232;48.094;11.288;2023-09-30T00:33:25;26.27;;;11.57;;
12332;SDS011;6232;48.094;11.288;2023-09-30T00:36:13;36.03;;;10.97;;
12332;SDS011;6232;48.094;11.288;2023-09-30T00:38:59;27.00;;;11.73;;
12332;SDS011;6232;48.094;11.288;2023-09-30T00:41:48;26.57;;;10.90;;
12332;SDS011;6232;48.094;11.288;2023-09-30T00:44:33;29.60;;;10.77;;
12332;SDS011;6232;48.094;11.288;2023-09-30T00:47:19;27.67;;;11.43;;
12332;SDS011;6232;48.094;11.288;2023-09-30T00:50:09;30.90;;;11.17;;
12332;SDS011;6232;48.094;11.288;2023-09-30T00:52:59;25.03;;;10.30;;
12332;SDS011;6232;48.094;11.288;2023-09-30T00:55:45;21.80;;;8.80;;
12332;SDS011;6232;48.094;11.288;2023-09-30T00:58:33;31.87;;;10.90;;
12332;SDS011;6232;48.094;11.288;2023-09-30T01:01:20;26.57;;;10.60;;
12332;SDS011;6232;48.094;11.288;2023-09-30T01:04:06;25.37;;;11.10;;
12332;SDS011;6232;48.094;11.288;2023-09-30T01:06:52;27.67;;;11.30;;
12332;SDS011;6232;48.094;11.288;2023-09-30T01:09:43;26.67;;;11.27;;
12332;SDS011;6232;48.094;11.288;2023-09-30T01:12:28;21.27;;;10.20;;
12332;SDS011;6232;48.094;11.288;2023-09-30T01:15:14;33.97;;;11.40;;
12332;SDS011;6232;48.094;11.288;2023-09-30T01:18:03;29.50;;;11.60;;
12332;SDS011;6232;48.094;11.288;2023-09-30T01:20:49;23.67;;;10.27;;
12332;SDS011;6232;48.094;11.288;2023-09-30T01:23:35;28.17;;;10.77;;
12332;SDS011;6232;48.094;11.288;2023-09-30T01:26:21;23.50;;;11.17;;
12332;SDS011;6232;48.094;11.288;2023-09-30T01:29:10;26.43;;;10.40;;
12332;SDS011;6232;48.094;11.288;2023-09-30T01:31:58;31.23;;;11.17;;
12332;SDS011;6232;48.094;11.288;2023-09-30T01:34:47;23.13;;;8.90;;
12332;SDS011;6232;48.094;11.288;2023-09-30T01:37:33;28.37;;;10.40;;
12332;SDS011;6232;48.094;11.288;2023-09-30T01:40:18;27.97;;;10.77;;
12332;SDS011;6232;48.094;11.288;2023-09-30T01:43:04;26.90;;;10.73;;
12332;SDS011;6232;48.094;11.288;2023-09-30T01:45:50;27.33;;;10.40;;
12332;SDS011;6232;48.094;11.288;2023-09-30T01:48:35;27.67;;;10.60;;
12332;SDS011;6232;48.094;11.288;2023-09-30T01:51:24;32.47;;;11.70;;
12332;SDS011;6232;48.094;11.288;2023-09-30T01:54:10;29.40;;;10.63;;
12332;SDS011;6232;48.094;11.288;2023-09-30T01:56:56;31.07;;;10.60;;
12332;SDS011;6232;48.094;11.288;2023-09-30T01:59:42;23.57;;;9.27;;
12332;SDS011;6232;48.094;11.288;2023-09-30T02:02:27;24.30;;;9.60;;
12332;SDS011;6232;48.094;11.288;2023-09-30T02:05:13;30.17;;;10.67;;
12332;SDS011;6232;48.094;11.288;2023-09-30T02:07:59;29.30;;;11.60;;
12332;SDS011;6232;48.094;11.288;2023-09-30T02:10:45;23.53;;;10.53;;
12332;SDS011;6232;48.094;11.288;2023-09-30T02:13:33;25.97;;;10.00;;
12332;SDS011;6232;48.094;11.288;2023-09-30T02:16:20;30.97;;;10.83;;
12332;SDS011;6232;48.094;11.288;2023-09-30T02:19:06;29.10;;;11.50;;
12332;SDS011;6232;48.094;11.288;2023-09-30T02:21:52;32.67;;;10.93;;
12332;SDS011;6232;48.094;11.288;2023-09-30T02:24:37;31.00;;;10.60;;
12332;SDS011;6232;48.094;11.288;2023-09-30T02:27:25;21.90;;;9.27;;
12332;SDS011;6232;48.094;11.288;2023-09-30T02:30:11;18.00;;;10.30;;
12332;SDS011;6232;48.094;11.288;2023-09-30T02:33:01;21.93;;;9.07;;
12332;SDS011;6232;48.094;11.288;2023-09-30T02:35:47;22.30;;;9.90;;
12332;SDS011;6232;48.094;11.288;2023-09-30T02:38:35;26.20;;;10.43;;
12332;SDS011;6232;48.094;11.288;2023-09-30T02:41:23;21.50;;;9.07;;
12332;SDS011;6232;48.094;11.288;2023-09-30T02:44:09;31.53;;;11.17;;
12332;SDS011;6232;48.094;11.288;2023-09-30T02:46:55;36.87;;;11.97;;
12332;SDS011;6232;48.094;11.288;2023-09-30T02:49:40;24.13;;;10.50;;
12332;SDS011;6232;48.094;11.288;2023-09-30T02:52:27;26.17;;;10.47;;
12332;SDS011;6232;48.094;11.288;2023-09-30T02:55:14;23.70;;;10.00;;
12332;SDS011;6232;48.094;11.288;2023-09-30T02:58:00;24.10;;;9.43;;
12332;SDS011;6232;48.094;11.288;2023-09-30T03:00:49;22.33;;;8.47;;
12332;SDS011;6232;48.094;11.288;2023-09-30T03:03:35;25.37;;;9.93;;
12332;SDS011;6232;48.094;11.288;2023-09-30T03:06:21;21.83;;;9.60;;
12332;SDS011;6232;48.094;11.288;2023-09-30T03:09:06;27.63;;;10.30;;
12332;SDS011;6232;48.094;11.288;2023-09-30T03:11:52;22.97;;;8.57;;
12332;SDS011;6232;48.094;11.288;2023-09-30T03:14:37;26.80;;;9.77;;
12332;SDS011;6232;48.094;11.288;2023-09-30T03:17:23;23.67;;;8.87;;
12332;SDS011;6232;48.094;11.288;2023-09-30T03:20:11;24.17;;;8.77;;
12332;SDS011;6232;48.094;11.288;2023-09-30T03:23:02;25.57;;;9.43;;
12332;SDS011;6232;48.094;11.288;2023-09-30T03:25:50;22.90;;;9.87;;
12332;SDS011;6232;48.094;11.288;2023-09-30T03:28:38;34.67;;;10.27;;
12332;SDS011;6232;48.094;11.288;2023-09-30T03:31:23;23.33;;;9.80;;
12332;SDS011;6232;48.094;11.288;2023-09-30T03:34:10;22.87;;;8.93;;
12332;SDS011;6232;48.094;11.288;2023-09-30T03:37:01;26.50;;;10.30;;
12332;SDS011;6232;48.094;11.288;2023-09-30T03:39:50;23.70;;;9.70;;
12332;SDS011;6232;48.094;11.288;2023-09-30T03:42:35;20.40;;;7.87;;
12332;SDS011;6232;48.094;11.288;2023-09-30T03:45:22;25.73;;;9.77;;
12332;SDS011;6232;48.094;11.288;2023-09-30T03:48:07;21.83;;;7.73;;
12332;SDS011;6232;48.094;11.288;2023-09-30T03:50:55;28.63;;;8.70;;
12332;SDS011;6232;48.094;11.288;2023-09-30T03:53:44;29.27;;;9.50;;
12332;SDS011;6232;48.094;11.288;2023-09-30T03:56:30;26.07;;;8.70;;
12332;SDS011;6232;48.094;11.288;2023-09-30T03:59:16;29.90;;;8.90;;
12332;SDS011;6232;48.094;11.288;2023-09-30T04:02:02;23.80;;;8.03;;
12332;SDS011;6232;48.094;11.288;2023-09-30T04:04:48;22.17;;;8.37;;
12332;SDS011;6232;48.094;11.288;2023-09-30T04:07:36;28.47;;;9.70;;
12332;SDS011;6232;48.094;11.288;2023-09-30T04:10:22;24.73;;;9.63;;
12332;SDS011;6232;48.094;11.288;2023-09-30T04:13:10;25.10;;;8.80;;
12332;SDS011;6232;48.094;11.288;2023-09-30T04:15:56;14.23;;;7.40;;
12332;SDS011;6232;48.094;11.288;2023-09-30T04:18:45;22.43;;;8.50;;
12332;SDS011;6232;48.094;11.288;2023-09-30T04:21:35;24.67;;;9.17;;
12332;SDS011;6232;48.094;11.288;2023-09-30T04:24:20;29.10;;;10.40;;
12332;SDS011;6232;48.094;11.288;2023-09-30T04:27:09;24.37;;;8.83;;
12332;SDS011;6232;48.094;11.288;2023-09-30T04:29:54;19.47;;;8.10;;
12332;SDS011;6232;48.094;11.288;2023-09-30T04:32:43;22.03;;;9.47;;
12332;SDS011;6232;48.094;11.288;2023-09-30T04:35:29;20.80;;;8.23;;
12332;SDS011;6232;48.094;11.288;2023-09-30T04:38:18;26.10;;;9.70;;
12332;SDS011;6232;48.094;11.288;2023-09-30T04:41:04;26.07;;;10.47;;
12332;SDS011;6232;48.094;11.288;2023-09-30T04:43:52;23.10;;;8.03;;
12332;SDS011;6232;48.094;11.288;2023-09-30T04:46:38;24.77;;;8.07;;
12332;SDS011;6232;48.094;11.288;2023-09-30T04:49:31;23.43;;;8.63;;
12332;SDS011;6232;48.094;11.288;2023-09-30T04:52:16;20.93;;;8.80;;
12332;SDS011;6232;48.094;11.288;2023-09-30T04:55:02;22.60;;;8.93;;
12332;SDS011;6232;48.094;11.288;2023-09-30T04:57:53;21.33;;;9.13;;
12332;SDS011;6232;48.094;11.288;2023-09-30T05:00:39;19.90;;;8.60;;
12332;SDS011;6232;48.094;11.288;2023-09-30T05:03:24;20.37;;;9.17;;
12332;SDS011;6232;48.094;11.288;2023-09-30T05:06:10;22.90;;;9.00;;
12332;SDS011;6232;48.094;11.288;2023-09-30T05:08:56;24.23;;;8.40;;
12332;SDS011;6232;48.094;11.288;2023-09-30T05:11:41;22.90;;;8.93;;
12332;SDS011;6232;48.094;11.288;2023-09-30T05:14:27;20.90;;;8.40;;
12332;SDS011;6232;48.094;11.288;2023-09-30T05:17:14;20.33;;;8.77;;
12332;SDS011;6232;48.094;11.288;2023-09-30T05:20:00;17.63;;;7.90;;
12332;SDS011;6232;48.094;11.288;2023-09-30T05:22:45;18.73;;;8.50;;
12332;SDS011;6232;48.094;11.288;2023-09-30T05:25:31;24.17;;;8.40;;
12332;SDS011;6232;48.094;11.288;2023-09-30T05:28:17;18.13;;;8.03;;
12332;SDS011;6232;48.094;11.288;2023-09-30T05:31:06;18.43;;;7.13;;
12332;SDS011;6232;48.094;11.288;2023-09-30T05:33:53;24.73;;;9.03;;
12332;SDS011;6232;48.094;11.288;2023-09-30T05:36:38;16.47;;;7.37;;
12332;SDS011;6232;48.094;11.288;2023-09-30T05:39:27;16.23;;;6.57;;
12332;SDS011;6232;48.094;11.288;2023-09-30T05:42:14;22.50;;;7.53;;
12332;SDS011;6232;48.094;11.288;2023-09-30T05:45:00;23.50;;;7.73;;
12332;SDS011;6232;48.094;11.288;2023-09-30T05:47:46;21.63;;;8.00;;
12332;SDS011;6232;48.094;11.288;2023-09-30T05:50:32;21.27;;;8.17;;
12332;SDS011;6232;48.094;11.288;2023-09-30T05:53:21;22.93;;;7.97;;
12332;SDS011;6232;48.094;11.288;2023-09-30T05:56:08;24.50;;;7.73;;
12332;SDS011;6232;48.094;11.288;2023-09-30T05:58:56;20.33;;;7.30;;
12332;SDS011;6232;48.094;11.288;2023-09-30T06:01:42;22.70;;;7.70;;
12332;SDS011;6232;48.094;11.288;2023-09-30T06:04:28;17.67;;;7.27;;
12332;SDS011;6232;48.094;11.288;2023-09-30T06:07:14;16.57;;;7.90;;
12332;SDS011;6232;48.094;11.288;2023-09-30T06:09:59;19.93;;;7.30;;
12332;SDS011;6232;48.094;11.288;2023-09-30T06:12:49;19.93;;;7.17;;
12332;SDS011;6232;48.094;11.288;2023-09-30T06:15:40;16.27;;;7.37;;
12332;SDS011;6232;48.094;11.288;2023-09-30T06:18:29;21.63;;;7.73;;
12332;SDS011;6232;48.094;11.288;2023-09-30T06:21:15;14.83;;;7.13;;
12332;SDS011;6232;48.094;11.288;2023-09-30T06:24:06;19.23;;;6.67;;
12332;SDS011;6232;48.094;11.288;2023-09-30T06:26:54;15.93;;;6.90;;
12332;SDS011;6232;48.094;11.288;2023-09-30T06:29:39;19.60;;;7.60;;
12332;SDS011;6232;48.094;11.288;2023-09-30T06:32:28;14.57;;;7.20;;
12332;SDS011;6232;48.094;11.288;2023-09-30T06:35:13;18.33;;;7.33;;
12332;SDS011;6232;48.094;11.288;2023-09-30T06:37:59;20.67;;;8.17;;
12332;SDS011;6232;48.094;11.288;2023-09-30T06:40:47;15.53;;;6.77;;
12332;SDS011;6232;48.094;11.288;2023-09-30T06:43:33;21.43;;;8.40;;
12332;SDS011;6232;48.094;11.288;2023-09-30T06:46:20;24.33;;;7.83;;
12332;SDS011;6232;48.094;11.288;2023-09-30T06:49:09;19.30;;;7.10;;
12332;SDS011;6232;48.094;11.288;2023-09-30T06:51:56;11.70;;;5.90;;
12332;SDS011;6232;48.094;11.288;2023-09-30T06:54:41;12.77;;;6.20;;
12332;SDS011;6232;48.094;11.288;2023-09-30T06:57:27;15.07;;;6.53;;
12332;SDS011;6232;48.094;11.288;2023-09-30T07:00:13;13.60;;;6.70;;
12332;SDS011;6232;48.094;11.288;2023-09-30T07:02:59;20.03;;;6.77;;
12332;SDS011;6232;48.094;11.288;2023-09-30T07:05:48;16.10;;;7.17;;
12332;SDS011;6232;48.094;11.288;2023-09-30T07:08:37;12.67;;;5.70;;
12332;SDS011;6232;48.094;11.288;2023-09-30T07:11:28;17.20;;;6.20;;
12332;SDS011;6232;48.094;11.288;2023-09-30T07:14:20;13.13;;;6.37;;
12332;SDS011;6232;48.094;11.288;2023-09-30T07:17:05;14.20;;;6.47;;
12332;SDS011;6232;48.094;11.288;2023-09-30T07:19:51;12.03;;;5.33;;
12332;SDS011;6232;48.094;11.288;2023-09-30T07:22:37;15.80;;;5.33;;
12332;SDS011;6232;48.094;11.288;2023-09-30T07:29:11;13.50;;;6.43;;
12332;SDS011;6232;48.094;11.288;2023-09-30T07:31:57;18.07;;;6.40;;
12332;SDS011;6232;48.094;11.288;2023-09-30T07:34:46;9.63;;;5.60;;
12332;SDS011;6232;48.094;11.288;2023-09-30T07:37:31;14.93;;;5.77;;
12332;SDS011;6232;48.094;11.288;2023-09-30T07:40:17;12.73;;;4.40;;
12332;SDS011;6232;48.094;11.288;2023-09-30T07:43:03;9.53;;;5.33;;
12332;SDS011;6232;48.094;11.288;2023-09-30T07:45:49;13.83;;;5.33;;
12332;SDS011;6232;48.094;11.288;2023-09-30T07:48:41;15.10;;;5.80;;
12332;SDS011;6232;48.094;11.288;2023-09-30T07:51:26;16.00;;;5.83;;
12332;SDS011;6232;48.094;11.288;2023-09-30T07:54:12;14.20;;;6.10;;
12332;SDS011;6232;48.094;11.288;2023-09-30T07:56:58;11.03;;;4.80;;
12332;SDS011;6232;48.094;11.288;2023-09-30T07:59:44;14.67;;;6.10;;
12332;SDS011;6232;48.094;11.288;2023-09-30T08:02:30;11.13;;;5.43;;
12332;SDS011;6232;48.094;11.288;2023-09-30T08:05:18;11.20;;;5.33;;
12332;SDS011;6232;48.094;11.288;2023-09-30T08:08:04;12.53;;;5.30;;
12332;SDS011;6232;48.094;11.288;2023-09-30T08:10:55;18.80;;;5.17;;
12332;SDS011;6232;48.094;11.288;2023-09-30T08:13:41;14.70;;;5.27;;
12332;SDS011;6232;48.094;11.288;2023-09-30T08:16:27;12.30;;;5.50;;
12332;SDS011;6232;48.094;11.288;2023-09-30T08:19:12;13.70;;;5.60;;
12332;SDS011;6232;48.094;11.288;2023-09-30T08:21:58;9.97;;;4.60;;
12332;SDS011;6232;48.094;11.288;2023-09-30T08:24:44;13.97;;;5.40;;
12332;SDS011;6232;48.094;11.288;2023-09-30T08:27:29;16.53;;;6.40;;
12332;SDS011;6232;48.094;11.288;2023-09-30T08:30:18;11.77;;;5.13;;
12332;SDS011;6232;48.094;11.288;2023-09-30T08:33:03;11.20;;;5.13;;
12332;SDS011;6232;48.094;11.288;2023-09-30T08:35:49;18.17;;;5.57;;
12332;SDS011;6232;48.094;11.288;2023-09-30T08:38:36;8.83;;;4.57;;
12332;SDS011;6232;48.094;11.288;2023-09-30T08:41:31;15.43;;;5.63;;
12332;SDS011;6232;48.094;11.288;2023-09-30T08:44:20;8.73;;;5.10;;
12332;SDS011;6232;48.094;11.288;2023-09-30T08:47:06;11.90;;;4.57;;
12332;SDS011;6232;48.094;11.288;2023-09-30T08:49:59;15.90;;;5.33;;
12332;SDS011;6232;48.094;11.288;2023-09-30T08:52:51;10.57;;;4.80;;
12332;SDS011;6232;48.094;11.288;2023-09-30T08:55:38;12.63;;;5.50;;
12332;SDS011;6232;48.094;11.288;2023-09-30T08:58:27;12.13;;;5.23;;
12332;SDS011;6232;48.094;11.288;2023-09-30T09:01:14;9.57;;;5.40;;
12332;SDS011;6232;48.094;11.288;2023-09-30T09:04:06;11.80;;;5.13;;
12332;SDS011;6232;48.094;11.288;2023-09-30T09:06:53;16.40;;;5.63;;
12332;SDS011;6232;48.094;11.288;2023-09-30T09:09:39;13.83;;;5.77;;
12332;SDS011;6232;48.094;11.288;2023-09-30T09:12:25;15.37;;;5.63;;
12332;SDS011;6232;48.094;11.288;2023-09-30T09:18:31;12.70;;;5.83;;
12332;SDS011;6232;48.094;11.288;2023-09-30T09:21:34;16.13;;;5.97;;
12332;SDS011;6232;48.094;11.288;2023-09-30T09:24:38;10.90;;;5.30;;
12332;SDS011;6232;48.094;11.288;2023-09-30T09:27:24;12.27;;;5.67;;
12332;SDS011;6232;48.094;11.288;2023-09-30T09:33:31;10.13;;;4.70;;
12332;SDS011;6232;48.094;11.288;2023-09-30T09:46:45;11.00;;;5.00;;
12332;SDS011;6232;48.094;11.288;2023-09-30T09:49:32;11.47;;;5.27;;
12332;SDS011;6232;48.094;11.288;2023-09-30T09:52:18;10.43;;;6.23;;
12332;SDS011;6232;48.094;11.288;2023-09-30T09:55:04;19.33;;;6.57;;
12332;SDS011;6232;48.094;11.288;2023-09-30T09:57:51;12.63;;;6.37;;
12332;SDS011;6232;48.094;11.288;2023-09-30T10:00:36;15.83;;;6.67;;
12332;SDS011;6232;48.094;11.288;2023-09-30T10:03:23;13.03;;;6.87;;
12332;SDS011;6232;48.094;11.288;2023-09-30T10:06:09;13.30;;;6.70;;
12332;SDS011;6232;48.094;11.288;2023-09-30T10:08:54;12.93;;;6.40;;
12332;SDS011;6232;48.094;11.288;2023-09-30T10:11:42;15.70;;;7.30;;
12332;SDS011;6232;48.094;11.288;2023-09-30T10:14:31;12.00;;;6.07;;
12332;SDS011;6232;48.094;11.288;2023-09-30T10:17:24;15.33;;;6.70;;
12332;SDS011;6232;48.094;11.288;2023-09-30T10:20:27;14.83;;;6.13;;
12332;SDS011;6232;48.094;11.288;2023-09-30T10:23:20;17.40;;;6.83;;
12332;SDS011;6232;48.094;11.288;2023-09-30T10:28:54;20.13;;;6.63;;
12332;SDS011;6232;48.094;11.288;2023-09-30T10:31:49;18.33;;;7.67;;
12332;SDS011;6232;48.094;11.288;2023-09-30T10:34:35;13.60;;;6.30;;
12332;SDS011;6232;48.094;11.288;2023-09-30T10:37:21;16.70;;;6.60;;
12332;SDS011;6232;48.094;11.288;2023-09-30T10:40:07;16.53;;;6.83;;
12332;SDS011;6232;48.094;11.288;2023-09-30T10:42:54;13.60;;;6.07;;
12332;SDS011;6232;48.094;11.288;2023-09-30T10:45:42;19.00;;;7.63;;
12332;SDS011;6232;48.094;11.288;2023-09-30T10:48:32;24.53;;;7.57;;
12332;SDS011;6232;48.094;11.288;2023-09-30T10:51:20;13.23;;;5.83;;
12332;SDS011;6232;48.094;11.288;2023-09-30T10:54:09;16.10;;;7.20;;
12332;SDS011;6232;48.094;11.288;2023-09-30T10:56:56;17.77;;;6.97;;
12332;SDS011;6232;48.094;11.288;2023-09-30T10:59:44;18.03;;;7.10;;
12332;SDS011;6232;48.094;11.288;2023-09-30T11:02:29;16.23;;;7.67;;
12332;SDS011;6232;48.094;11.288;2023-09-30T11:05:16;17.73;;;7.73;;
12332;SDS011;6232;48.094;11.288;2023-09-30T11:08:01;16.63;;;6.43;;
12332;SDS011;6232;48.094;11.288;2023-09-30T11:10:49;16.77;;;6.37;;
12332;SDS011;6232;48.094;11.288;2023-09-30T11:13:36;17.20;;;7.27;;
12332;SDS011;6232;48.094;11.288;2023-09-30T11:16:21;16.57;;;7.10;;
12332;SDS011;6232;48.094;11.288;2023-09-30T11:19:07;14.50;;;7.60;;
12332;SDS011;6232;48.094;11.288;2023-09-30T11:21:54;16.87;;;7.00;;
12332;SDS011;6232;48.094;11.288;2023-09-30T11:24:40;19.77;;;8.20;;
12332;SDS011;6232;48.094;11.288;2023-09-30T11:27:26;13.87;;;7.10;;
12332;SDS011;6232;48.094;11.288;2023-09-30T11:30:12;15.70;;;5.73;;
12332;SDS011;6232;48.094;11.288;2023-09-30T11:32:58;13.50;;;6.00;;
12332;SDS011;6232;48.094;11.288;2023-09-30T11:35:59;17.30;;;6.83;;
12332;SDS011;6232;48.094;11.288;2023-09-30T11:38:46;17.53;;;6.40;;
12332;SDS011;6232;48.094;11.288;2023-09-30T11:41:33;12.60;;;6.53;;
12332;SDS011;6232;48.094;11.288;2023-09-30T11:44:19;15.40;;;6.80;;
12332;SDS011;6232;48.094;11.288;2023-09-30T11:47:04;11.90;;;5.00;;
12332;SDS011;6232;48.094;11.288;2023-09-30T11:49:52;12.77;;;5.73;;
12332;SDS011;6232;48.094;11.288;2023-09-30T11:52:39;10.80;;;5.77;;
12332;SDS011;6232;48.094;11.288;2023-09-30T11:55:29;13.33;;;5.80;;
12332;SDS011;6232;48.094;11.288;2023-09-30T11:58:15;13.53;;;6.10;;
12332;SDS011;6232;48.094;11.288;2023-09-30T12:01:03;12.50;;;6.10;;
12332;SDS011;6232;48.094;11.288;2023-09-30T12:03:52;14.23;;;6.17;;
12332;SDS011;6232;48.094;11.288;2023-09-30T12:06:40;11.80;;;6.33;;
12332;SDS011;6232;48.094;11.288;2023-09-30T12:09:25;14.77;;;6.47;;
12332;SDS011;6232;48.094;11.288;2023-09-30T12:12:13;15.63;;;7.43;;
12332;SDS011;6232;48.094;11.288;2023-09-30T12:14:59;11.53;;;6.40;;
12332;SDS011;6232;48.094;11.288;2023-09-30T12:17:45;12.30;;;5.67;;
12332;SDS011;6232;48.094;11.288;2023-09-30T12:20:31;12.13;;;6.30;;
12332;SDS011;6232;48.094;11.288;2023-09-30T12:23:16;11.33;;;6.47;;
12332;SDS011;6232;48.094;11.288;2023-09-30T12:26:03;13.47;;;6.63;;
12332;SDS011;6232;48.094;11.288;2023-09-30T12:28:51;14.73;;;6.70;;
12332;SDS011;6232;48.094;11.288;2023-09-30T12:31:38;15.37;;;7.00;;
12332;SDS011;6232;48.094;11.288;2023-09-30T12:34:24;11.83;;;7.00;;
12332;SDS011;6232;48.094;11.288;2023-09-30T12:37:11;18.60;;;7.27;;
12332;SDS011;6232;48.094;11.288;2023-09-30T12:39:56;15.67;;;7.37;;
12332;SDS011;6232;48.094;11.288;2023-09-30T12:42:45;12.83;;;5.97;;
12332;SDS011;6232;48.094;11.288;2023-09-30T12:45:30;14.47;;;6.50;;
12332;SDS011;6232;48.094;11.288;2023-09-30T12:48:16;14.77;;;7.07;;
12332;SDS011;6232;48.094;11.288;2023-09-30T12:51:02;13.13;;;5.90;;
12332;SDS011;6232;48.094;11.288;2023-09-30T12:53:51;15.40;;;6.53;;
12332;SDS011;6232;48.094;11.288;2023-09-30T12:56:37;15.17;;;6.57;;
12332;SDS011;6232;48.094;11.288;2023-09-30T12:59:22;14.60;;;6.60;;
12332;SDS011;6232;48.094;11.288;2023-09-30T13:02:11;20.33;;;8.07;;
12332;SDS011;6232;48.094;11.288;2023-09-30T13:04:56;10.57;;;5.53;;
12332;SDS011;6232;48.094;11.288;2023-09-30T13:07:42;17.20;;;10.10;;
12332;SDS011;6232;48.094;11.288;2023-09-30T13:10:28;14.67;;;6.90;;
12332;SDS011;6232;48.094;11.288;2023-09-30T13:13:16;12.20;;;6.20;;
12332;SDS011;6232;48.094;11.288;2023-09-30T13:16:02;15.23;;;6.00;;
12332;SDS011;6232;48.094;11.288;2023-09-30T13:18:47;13.40;;;6.27;;
12332;SDS011;6232;48.094;11.288;2023-09-30T13:21:33;15.50;;;7.70;;
12332;SDS011;6232;48.094;11.288;2023-09-30T13:24:19;13.60;;;6.40;;
12332;SDS011;6232;48.094;11.288;2023-09-30T13:27:05;14.93;;;7.23;;
12332;SDS011;6232;48.094;11.288;2023-09-30T13:29:50;15.90;;;8.70;;
12332;SDS011;6232;48.094;11.288;2023-09-30T13:32:36;20.67;;;14.70;;
12332;SDS011;6232;48.094;11.288;2023-09-30T13:35:21;12.53;;;7.50;;
12332;SDS011;6232;48.094;11.288;2023-09-30T13:38:07;15.57;;;7.17;;
12332;SDS011;6232;48.094;11.288;2023-09-30T13:40:53;13.27;;;7.20;;
12332;SDS011;6232;48.094;11.288;2023-09-30T13:43:39;12.63;;;5.90;;
12332;SDS011;6232;48.094;11.288;2023-09-30T13:46:24;14.53;;;6.80;;
12332;SDS011;6232;48.094;11.288;2023-09-30T13:49:13;13.87;;;6.60;;
12332;SDS011;6232;48.094;11.288;2023-09-30T13:51:59;11.63;;;6.13;;
12332;SDS011;6232;48.094;11.288;2023-09-30T13:54:44;12.70;;;7.60;;
12332;SDS011;6232;48.094;11.288;2023-09-30T13:57:14;16.13;;;6.30;;
12332;SDS011;6232;48.094;11.288;2023-09-30T13:59:59;12.13;;;6.17;;
12332;SDS011;6232;48.094;11.288;2023-09-30T14:02:45;12.50;;;6.97;;
12332;SDS011;6232;48.094;11.288;2023-09-30T14:05:31;14.40;;;6.57;;
12332;SDS011;6232;48.094;11.288;2023-09-30T14:08:16;14.23;;;5.50;;
12332;SDS011;6232;48.094;11.288;2023-09-30T14:11:02;16.60;;;6.97;;
12332;SDS011;6232;48.094;11.288;2023-09-30T14:13:47;11.07;;;6.00;;
12332;SDS011;6232;48.094;11.288;2023-09-30T14:16:34;12.70;;;6.70;;
12332;SDS011;6232;48.094;11.288;2023-09-30T14:19:20;14.73;;;6.27;;
12332;SDS011;6232;48.094;11.288;2023-09-30T14:22:06;13.27;;;6.10;;
12332;SDS011;6232;48.094;11.288;2023-09-30T14:24:53;10.77;;;5.97;;
12332;SDS011;6232;48.094;11.288;2023-09-30T14:27:39;12.33;;;6.17;;
12332;SDS011;6232;48.094;11.288;2023-09-30T14:30:25;15.03;;;6.40;;
12332;SDS011;6232;48.094;11.288;2023-09-30T14:33:11;13.53;;;6.93;;
12332;SDS011;6232;48.094;11.288;2023-09-30T14:35:56;11.50;;;5.40;;
12332;SDS011;6232;48.094;11.288;2023-09-30T14:38:42;13.63;;;6.47;;
12332;SDS011;6232;48.094;11.288;2023-09-30T14:41:28;13.00;;;5.47;;
12332;SDS011;6232;48.094;11.288;2023-09-30T14:44:14;16.43;;;5.83;;
12332;SDS011;6232;48.094;11.288;2023-09-30T14:46:59;12.03;;;5.90;;
12332;SDS011;6232;48.094;11.288;2023-09-30T14:49:45;15.60;;;6.40;;
12332;SDS011;6232;48.094;11.288;2023-09-30T14:52:30;13.43;;;6.60;;
12332;SDS011;6232;48.094;11.288;2023-09-30T14:55:16;17.63;;;5.67;;
12332;SDS011;6232;48.094;11.288;2023-09-30T14:58:01;11.93;;;5.40;;
12332;SDS011;6232;48.094;11.288;2023-09-30T15:00:47;11.80;;;5.10;;
12332;SDS011;6232;48.094;11.288;2023-09-30T15:03:33;12.50;;;5.80;;
12332;SDS011;6232;48.094;11.288;2023-09-30T15:06:20;15.17;;;6.57;;
12332;SDS011;6232;48.094;11.288;2023-09-30T15:09:08;14.00;;;6.20;;
12332;SDS011;6232;48.094;11.288;2023-09-30T15:11:56;14.57;;;6.70;;
12332;SDS011;6232;48.094;11.288;2023-09-30T15:14:43;14.77;;;6.37;;
12332;SDS011;6232;48.094;11.288;2023-09-30T15:17:30;17.23;;;7.03;;
12332;SDS011;6232;48.094;11.288;2023-09-30T15:20:15;12.93;;;5.90;;
12332;SDS011;6232;48.094;11.288;2023-09-30T15:23:02;13.17;;;6.30;;
12332;SDS011;6232;48.094;11.288;2023-09-30T15:25:47;11.87;;;6.07;;
12332;SDS011;6232;48.094;11.288;2023-09-30T15:28:33;15.47;;;6.60;;
12332;SDS011;6232;48.094;11.288;2023-09-30T15:31:19;14.37;;;6.57;;
12332;SDS011;6232;48.094;11.288;2023-09-30T15:34:04;19.27;;;7.20;;
12332;SDS011;6232;48.094;11.288;2023-09-30T15:36:50;13.73;;;5.83;;
12332;SDS011;6232;48.094;11.288;2023-09-30T15:39:37;12.23;;;5.70;;
12332;SDS011;6232;48.094;11.288;2023-09-30T15:42:23;14.63;;;5.83;;
12332;SDS011;6232;48.094;11.288;2023-09-30T15:45:09;13.50;;;6.37;;
12332;SDS011;6232;48.094;11.288;2023-09-30T15:47:54;12.43;;;6.10;;
12332;SDS011;6232;48.094;11.288;2023-09-30T15:50:41;12.53;;;6.10;;
12332;SDS011;6232;48.094;11.288;2023-09-30T15:53:26;14.20;;;6.13;;
12332;SDS011;6232;48.094;11.288;2023-09-30T15:56:13;12.40;;;6.53;;
12332;SDS011;6232;48.094;11.288;2023-09-30T15:58:59;18.13;;;7.70;;
12332;SDS011;6232;48.094;11.288;2023-09-30T16:01:44;19.97;;;6.83;;
12332;SDS011;6232;48.094;11.288;2023-09-30T16:04:30;16.53;;;6.90;;
12332;SDS011;6232;48.094;11.288;2023-09-30T16:07:15;12.97;;;6.13;;
12332;SDS011;6232;48.094;11.288;2023-09-30T16:10:01;15.13;;;6.10;;
12332;SDS011;6232;48.094;11.288;2023-09-30T16:12:47;14.97;;;7.13;;
12332;SDS011;6232;48.094;11.288;2023-09-30T16:15:32;14.03;;;6.07;;
12332;SDS011;6232;48.094;11.288;2023-09-30T16:18:18;12.80;;;7.27;;
12332;SDS011;6232;48.094;11.288;2023-09-30T16:21:04;12.83;;;6.10;;
12332;SDS011;6232;48.094;11.288;2023-09-30T16:23:49;13.03;;;6.13;;
12332;SDS011;6232;48.094;11.288;2023-09-30T16:26:35;14.87;;;6.80;;
12332;SDS011;6232;48.094;11.288;2023-09-30T16:29:21;13.10;;;6.10;;
12332;SDS011;6232;48.094;11.288;2023-09-30T16:32:08;10.73;;;5.83;;
12332;SDS011;6232;48.094;11.288;2023-09-30T16:34:54;10.57;;;6.00;;
12332;SDS011;6232;48.094;11.288;2023-09-30T16:37:40;15.00;;;6.80;;
12332;SDS011;6232;48.094;11.288;2023-09-30T16:40:27;20.33;;;7.70;;
12332;SDS011;6232;48.094;11.288;2023-09-30T16:43:12;20.53;;;9.40;;
12332;SDS011;6232;48.094;11.288;2023-09-30T16:45:58;19.27;;;8.10;;
12332;SDS011;6232;48.094;11.288;2023-09-30T16:48:44;15.87;;;8.17;;
12332;SDS011;6232;48.094;11.288;2023-09-30T16:51:29;15.00;;;7.20;;